sensor_id;sensor_type;location;lat;lon;timestamp;temperature;humidity
13808;DHT22;40769;51.512;5.494;2023-09-12T00:02:14;22.10;99.90
13808;DHT22;40769;51.512;5.494;2023-09-12T00:04:40;22.10;99.90
13808;DHT22;40769;51.512;5.494;2023-09-12T00:07:05;22.10;99.90
13808;DHT22;40769;51.512;5.494;2023-09-12T00:09:31;22.20;99.90
13808;DHT22;40769;51.512;5.494;2023-09-12T00:11:57;22.30;99.90
13808;DHT22;40769;51.512;5.494;2023-09-12T00:14:22;22.30;99.90
13808;DHT22;40769;51.512;5.494;2023-09-12T00:16:48;22.40;99.90
13808;DHT22;40769;51.512;5.494;2023-09-12T00:19:13;22.40;99.90
13808;DHT22;40769;51.512;5.494;2023-09-12T00:21:39;22.50;99.90
13808;DHT22;40769;51.512;5.494;2023-09-12T00:24:06;22.60;99.90
13808;DHT22;40769;51.512;5.494;2023-09-12T00:26:32;22.60;99.90
13808;DHT22;40769;51.512;5.494;2023-09-12T00:28:58;22.60;99.90
13808;DHT22;40769;51.512;5.494;2023-09-12T00:31:24;22.70;99.90
13808;DHT22;40769;51.512;5.494;2023-09-12T00:33:49;22.80;99.90
13808;DHT22;40769;51.512;5.494;2023-09-12T00:36:15;22.80;99.90
13808;DHT22;40769;51.512;5.494;2023-09-12T00:38:41;22.80;99.90
13808;DHT22;40769;51.512;5.494;2023-09-12T00:41:07;22.90;99.90
13808;DHT22;40769;51.512;5.494;2023-09-12T00:43:32;22.90;99.90
13808;DHT22;40769;51.512;5.494;2023-09-12T00:45:58;22.80;99.90
13808;DHT22;40769;51.512;5.494;2023-09-12T00:48:24;22.00;99.90
13808;DHT22;40769;51.512;5.494;2023-09-12T00:50:51;22.80;99.90
13808;DHT22;40769;51.512;5.494;2023-09-12T00:53:18;22.90;99.90
13808;DHT22;40769;51.512;5.494;2023-09-12T00:55:48;22.80;99.90
13808;DHT22;40769;51.512;5.494;2023-09-12T00:58:15;22.80;99.90
13808;DHT22;40769;51.512;5.494;2023-09-12T01:00:41;22.80;99.90
13808;DHT22;40769;51.512;5.494;2023-09-12T01:03:07;22.80;99.90
13808;DHT22;40769;51.512;5.494;2023-09-12T01:05:33;22.80;99.90
13808;DHT22;40769;51.512;5.494;2023-09-12T01:08:00;22.80;99.90
13808;DHT22;40769;51.512;5.494;2023-09-12T01:10:26;22.80;99.90
13808;DHT22;40769;51.512;5.494;2023-09-12T01:12:52;22.80;99.90
13808;DHT22;40769;51.512;5.494;2023-09-12T01:15:18;22.80;99.90
13808;DHT22;40769;51.512;5.494;2023-09-12T01:17:45;22.90;99.90
13808;DHT22;40769;51.512;5.494;2023-09-12T01:20:16;22.80;99.90
13808;DHT22;40769;51.512;5.494;2023-09-12T01:22:50;22.90;99.90
13808;DHT22;40769;51.512;5.494;2023-09-12T01:25:29;22.90;99.90
13808;DHT22;40769;51.512;5.494;2023-09-12T01:28:02;22.90;99.90
13808;DHT22;40769;51.512;5.494;2023-09-12T01:30:31;22.90;99.90
13808;DHT22;40769;51.512;5.494;2023-09-12T01:32:58;22.90;99.90
13808;DHT22;40769;51.512;5.494;2023-09-12T01:35:24;22.90;99.90
13808;DHT22;40769;51.512;5.494;2023-09-12T01:37:50;22.90;99.90
13808;DHT22;40769;51.512;5.494;2023-09-12T01:40:16;23.00;99.90
13808;DHT22;40769;51.512;5.494;2023-09-12T01:42:46;23.00;99.90
13808;DHT22;40769;51.512;5.494;2023-09-12T01:45:17;23.00;99.90
13808;DHT22;40769;51.512;5.494;2023-09-12T01:47:45;23.00;99.90
13808;DHT22;40769;51.512;5.494;2023-09-12T01:50:13;23.00;99.90
13808;DHT22;40769;51.512;5.494;2023-09-12T01:52:40;23.00;99.90
13808;DHT22;40769;51.512;5.494;2023-09-12T01:55:07;23.00;99.90
13808;DHT22;40769;51.512;5.494;2023-09-12T01:57:35;23.00;99.90
13808;DHT22;40769;51.512;5.494;2023-09-12T02:00:01;23.00;99.90
13808;DHT22;40769;51.512;5.494;2023-09-12T02:02:27;23.00;99.90
13808;DHT22;40769;51.512;5.494;2023-09-12T02:07:35;23.00;99.90
13808;DHT22;40769;51.512;5.494;2023-09-12T02:10:01;23.00;99.90
13808;DHT22;40769;51.512;5.494;2023-09-12T02:12:27;23.00;99.90
13808;DHT22;40769;51.512;5.494;2023-09-12T02:14:52;23.00;99.90
13808;DHT22;40769;51.512;5.494;2023-09-12T02:17:18;23.00;99.90
13808;DHT22;40769;51.512;5.494;2023-09-12T02:19:47;23.00;99.90
13808;DHT22;40769;51.512;5.494;2023-09-12T02:22:13;23.00;99.90
13808;DHT22;40769;51.512;5.494;2023-09-12T02:24:38;23.00;99.90
13808;DHT22;40769;51.512;5.494;2023-09-12T02:27:04;23.00;99.90
13808;DHT22;40769;51.512;5.494;2023-09-12T02:29:30;23.10;99.90
13808;DHT22;40769;51.512;5.494;2023-09-12T02:31:58;23.10;99.90
13808;DHT22;40769;51.512;5.494;2023-09-12T02:34:23;23.10;99.90
13808;DHT22;40769;51.512;5.494;2023-09-12T02:36:49;23.10;99.90
13808;DHT22;40769;51.512;5.494;2023-09-12T02:39:15;23.20;99.90
13808;DHT22;40769;51.512;5.494;2023-09-12T02:41:41;23.20;99.90
13808;DHT22;40769;51.512;5.494;2023-09-12T02:44:06;23.30;99.90
13808;DHT22;40769;51.512;5.494;2023-09-12T02:46:33;23.40;99.90
13808;DHT22;40769;51.512;5.494;2023-09-12T02:48:58;23.40;99.90
13808;DHT22;40769;51.512;5.494;2023-09-12T02:51:25;23.50;99.90
13808;DHT22;40769;51.512;5.494;2023-09-12T02:53:51;23.40;99.90
13808;DHT22;40769;51.512;5.494;2023-09-12T02:56:17;23.50;99.90
13808;DHT22;40769;51.512;5.494;2023-09-12T02:58:46;23.50;99.90
13808;DHT22;40769;51.512;5.494;2023-09-12T03:01:19;23.50;99.90
13808;DHT22;40769;51.512;5.494;2023-09-12T03:03:49;23.50;99.90
13808;DHT22;40769;51.512;5.494;2023-09-12T03:06:16;23.50;99.90
13808;DHT22;40769;51.512;5.494;2023-09-12T03:08:43;23.60;99.90
13808;DHT22;40769;51.512;5.494;2023-09-12T03:11:09;23.60;99.90
13808;DHT22;40769;51.512;5.494;2023-09-12T03:13:36;23.60;99.90
13808;DHT22;40769;51.512;5.494;2023-09-12T03:16:02;23.60;99.90
13808;DHT22;40769;51.512;5.494;2023-09-12T03:18:28;23.60;99.90
13808;DHT22;40769;51.512;5.494;2023-09-12T03:20:54;23.50;99.90
13808;DHT22;40769;51.512;5.494;2023-09-12T03:23:20;23.60;99.90
13808;DHT22;40769;51.512;5.494;2023-09-12T03:25:46;23.50;99.90
13808;DHT22;40769;51.512;5.494;2023-09-12T03:28:11;23.50;99.90
13808;DHT22;40769;51.512;5.494;2023-09-12T03:30:38;23.10;99.90
13808;DHT22;40769;51.512;5.494;2023-09-12T03:33:04;23.50;99.90
13808;DHT22;40769;51.512;5.494;2023-09-12T03:35:35;24.30;99.90
13808;DHT22;40769;51.512;5.494;2023-09-12T03:38:10;23.50;99.90
13808;DHT22;40769;51.512;5.494;2023-09-12T03:40:36;23.40;99.90
13808;DHT22;40769;51.512;5.494;2023-09-12T03:43:02;23.40;99.90
13808;DHT22;40769;51.512;5.494;2023-09-12T03:45:27;23.40;99.90
13808;DHT22;40769;51.512;5.494;2023-09-12T03:47:53;23.30;99.90
13808;DHT22;40769;51.512;5.494;2023-09-12T03:50:19;23.30;99.90
13808;DHT22;40769;51.512;5.494;2023-09-12T03:52:45;23.20;99.90
13808;DHT22;40769;51.512;5.494;2023-09-12T03:55:10;23.20;99.90
13808;DHT22;40769;51.512;5.494;2023-09-12T03:57:36;23.20;99.90
13808;DHT22;40769;51.512;5.494;2023-09-12T04:00:02;23.20;99.90
13808;DHT22;40769;51.512;5.494;2023-09-12T04:02:31;23.10;99.90
13808;DHT22;40769;51.512;5.494;2023-09-12T04:04:57;23.10;99.90
13808;DHT22;40769;51.512;5.494;2023-09-12T04:07:24;23.10;99.90
13808;DHT22;40769;51.512;5.494;2023-09-12T04:09:50;23.10;99.90
13808;DHT22;40769;51.512;5.494;2023-09-12T04:12:16;23.00;99.90
13808;DHT22;40769;51.512;5.494;2023-09-12T04:14:42;22.90;99.90
13808;DHT22;40769;51.512;5.494;2023-09-12T04:17:07;22.90;99.90
13808;DHT22;40769;51.512;5.494;2023-09-12T04:19:33;22.80;99.90
13808;DHT22;40769;51.512;5.494;2023-09-12T04:21:59;22.70;99.90
13808;DHT22;40769;51.512;5.494;2023-09-12T04:24:25;22.70;99.90
13808;DHT22;40769;51.512;5.494;2023-09-12T04:26:51;22.60;99.90
13808;DHT22;40769;51.512;5.494;2023-09-12T04:29:17;22.60;99.90
13808;DHT22;40769;51.512;5.494;2023-09-12T04:31:42;22.60;99.90
13808;DHT22;40769;51.512;5.494;2023-09-12T04:34:08;22.50;99.90
13808;DHT22;40769;51.512;5.494;2023-09-12T04:36:34;22.40;99.90
13808;DHT22;40769;51.512;5.494;2023-09-12T04:38:59;22.40;99.90
13808;DHT22;40769;51.512;5.494;2023-09-12T04:41:28;22.40;99.90
13808;DHT22;40769;51.512;5.494;2023-09-12T04:43:53;22.40;99.90
13808;DHT22;40769;51.512;5.494;2023-09-12T04:46:19;22.40;99.90
13808;DHT22;40769;51.512;5.494;2023-09-12T04:48:45;22.40;99.90
13808;DHT22;40769;51.512;5.494;2023-09-12T04:51:10;22.40;99.90
13808;DHT22;40769;51.512;5.494;2023-09-12T04:53:36;22.40;99.90
13808;DHT22;40769;51.512;5.494;2023-09-12T04:56:02;22.30;99.90
13808;DHT22;40769;51.512;5.494;2023-09-12T04:58:29;22.30;99.90
13808;DHT22;40769;51.512;5.494;2023-09-12T05:00:55;22.30;99.90
13808;DHT22;40769;51.512;5.494;2023-09-12T05:03:24;22.30;99.90
13808;DHT22;40769;51.512;5.494;2023-09-12T05:05:50;22.40;99.90
13808;DHT22;40769;51.512;5.494;2023-09-12T05:08:16;22.40;99.90
13808;DHT22;40769;51.512;5.494;2023-09-12T05:10:46;22.40;99.90
13808;DHT22;40769;51.512;5.494;2023-09-12T05:13:12;22.50;99.90
13808;DHT22;40769;51.512;5.494;2023-09-12T05:15:40;22.50;99.90
13808;DHT22;40769;51.512;5.494;2023-09-12T05:18:06;22.50;99.90
13808;DHT22;40769;51.512;5.494;2023-09-12T05:20:35;22.50;99.90
13808;DHT22;40769;51.512;5.494;2023-09-12T05:23:01;23.20;99.90
13808;DHT22;40769;51.512;5.494;2023-09-12T05:25:26;22.60;99.90
13808;DHT22;40769;51.512;5.494;2023-09-12T05:27:52;22.60;99.90
13808;DHT22;40769;51.512;5.494;2023-09-12T05:30:18;22.70;99.90
13808;DHT22;40769;51.512;5.494;2023-09-12T05:32:44;22.80;99.90
13808;DHT22;40769;51.512;5.494;2023-09-12T05:35:10;22.80;99.90
13808;DHT22;40769;51.512;5.494;2023-09-12T05:37:35;22.90;99.90
13808;DHT22;40769;51.512;5.494;2023-09-12T05:40:01;22.90;99.90
13808;DHT22;40769;51.512;5.494;2023-09-12T05:42:27;23.00;99.90
13808;DHT22;40769;51.512;5.494;2023-09-12T05:44:53;23.00;99.90
13808;DHT22;40769;51.512;5.494;2023-09-12T05:47:19;23.10;99.90
13808;DHT22;40769;51.512;5.494;2023-09-12T05:49:45;23.10;99.90
13808;DHT22;40769;51.512;5.494;2023-09-12T05:52:11;23.10;99.90
13808;DHT22;40769;51.512;5.494;2023-09-12T05:54:38;23.10;99.90
13808;DHT22;40769;51.512;5.494;2023-09-12T05:57:07;23.10;99.90
13808;DHT22;40769;51.512;5.494;2023-09-12T05:59:36;23.10;99.90
13808;DHT22;40769;51.512;5.494;2023-09-12T06:02:04;23.20;99.90
13808;DHT22;40769;51.512;5.494;2023-09-12T06:04:30;23.20;99.90
13808;DHT22;40769;51.512;5.494;2023-09-12T06:06:56;23.20;99.90
13808;DHT22;40769;51.512;5.494;2023-09-12T06:09:21;24.30;99.90
13808;DHT22;40769;51.512;5.494;2023-09-12T06:11:47;23.20;99.90
13808;DHT22;40769;51.512;5.494;2023-09-12T06:14:13;23.20;99.90
13808;DHT22;40769;51.512;5.494;2023-09-12T06:16:39;23.30;99.90
13808;DHT22;40769;51.512;5.494;2023-09-12T06:19:04;23.30;99.90
13808;DHT22;40769;51.512;5.494;2023-09-12T06:21:30;23.30;99.90
13808;DHT22;40769;51.512;5.494;2023-09-12T06:24:30;23.30;99.90
13808;DHT22;40769;51.512;5.494;2023-09-12T06:26:56;23.40;99.90
13808;DHT22;40769;51.512;5.494;2023-09-12T06:29:22;23.40;99.90
13808;DHT22;40769;51.512;5.494;2023-09-12T06:31:48;23.40;99.90
13808;DHT22;40769;51.512;5.494;2023-09-12T06:34:14;23.40;99.90
13808;DHT22;40769;51.512;5.494;2023-09-12T06:36:40;23.40;99.90
13808;DHT22;40769;51.512;5.494;2023-09-12T06:39:10;23.40;99.90
13808;DHT22;40769;51.512;5.494;2023-09-12T06:41:36;23.40;99.90
13808;DHT22;40769;51.512;5.494;2023-09-12T06:44:01;23.40;99.90
13808;DHT22;40769;51.512;5.494;2023-09-12T06:46:29;23.30;99.90
13808;DHT22;40769;51.512;5.494;2023-09-12T06:48:55;23.30;99.90
13808;DHT22;40769;51.512;5.494;2023-09-12T06:51:24;23.30;99.90
13808;DHT22;40769;51.512;5.494;2023-09-12T06:53:51;23.30;99.90
13808;DHT22;40769;51.512;5.494;2023-09-12T06:56:17;23.30;99.90
13808;DHT22;40769;51.512;5.494;2023-09-12T06:58:43;23.30;99.90
13808;DHT22;40769;51.512;5.494;2023-09-12T07:01:08;23.40;99.90
13808;DHT22;40769;51.512;5.494;2023-09-12T07:03:35;22.90;99.90
13808;DHT22;40769;51.512;5.494;2023-09-12T07:06:02;23.40;99.90
13808;DHT22;40769;51.512;5.494;2023-09-12T07:08:30;23.50;99.90
13808;DHT22;40769;51.512;5.494;2023-09-12T07:10:56;23.60;99.90
13808;DHT22;40769;51.512;5.494;2023-09-12T07:13:23;23.60;99.90
13808;DHT22;40769;51.512;5.494;2023-09-12T07:15:49;23.70;99.90
13808;DHT22;40769;51.512;5.494;2023-09-12T07:18:15;23.70;99.90
13808;DHT22;40769;51.512;5.494;2023-09-12T07:20:41;23.80;99.90
13808;DHT22;40769;51.512;5.494;2023-09-12T07:23:07;23.90;99.90
13808;DHT22;40769;51.512;5.494;2023-09-12T07:25:40;23.90;99.90
13808;DHT22;40769;51.512;5.494;2023-09-12T07:28:06;23.90;99.90
13808;DHT22;40769;51.512;5.494;2023-09-12T07:30:32;24.00;99.90
13808;DHT22;40769;51.512;5.494;2023-09-12T07:32:58;24.10;99.90
13808;DHT22;40769;51.512;5.494;2023-09-12T07:35:24;24.10;99.90
13808;DHT22;40769;51.512;5.494;2023-09-12T07:37:50;24.10;99.90
13808;DHT22;40769;51.512;5.494;2023-09-12T07:40:16;24.10;99.90
13808;DHT22;40769;51.512;5.494;2023-09-12T07:42:41;24.10;99.90
13808;DHT22;40769;51.512;5.494;2023-09-12T07:45:08;24.10;99.90
13808;DHT22;40769;51.512;5.494;2023-09-12T07:47:33;24.20;99.90
13808;DHT22;40769;51.512;5.494;2023-09-12T07:49:59;24.40;99.90
13808;DHT22;40769;51.512;5.494;2023-09-12T07:52:29;24.60;99.90
13808;DHT22;40769;51.512;5.494;2023-09-12T07:55:00;25.10;99.90
13808;DHT22;40769;51.512;5.494;2023-09-12T07:57:27;25.10;99.90
13808;DHT22;40769;51.512;5.494;2023-09-12T07:59:53;25.30;99.90
13808;DHT22;40769;51.512;5.494;2023-09-12T08:02:19;25.50;99.90
13808;DHT22;40769;51.512;5.494;2023-09-12T08:04:45;25.70;99.90
13808;DHT22;40769;51.512;5.494;2023-09-12T08:07:13;26.00;99.90
13808;DHT22;40769;51.512;5.494;2023-09-12T08:10:08;26.20;99.90
13808;DHT22;40769;51.512;5.494;2023-09-12T08:12:33;26.60;99.90
13808;DHT22;40769;51.512;5.494;2023-09-12T08:15:00;26.80;99.90
13808;DHT22;40769;51.512;5.494;2023-09-12T08:17:26;27.00;99.90
13808;DHT22;40769;51.512;5.494;2023-09-12T08:19:52;27.30;99.90
13808;DHT22;40769;51.512;5.494;2023-09-12T08:22:18;27.40;99.90
13808;DHT22;40769;51.512;5.494;2023-09-12T08:24:47;27.50;99.90
13808;DHT22;40769;51.512;5.494;2023-09-12T08:27:13;27.60;99.90
13808;DHT22;40769;51.512;5.494;2023-09-12T08:29:40;27.60;99.90
13808;DHT22;40769;51.512;5.494;2023-09-12T08:32:07;28.20;99.90
13808;DHT22;40769;51.512;5.494;2023-09-12T08:34:33;27.60;99.90
13808;DHT22;40769;51.512;5.494;2023-09-12T08:36:58;27.60;99.90
13808;DHT22;40769;51.512;5.494;2023-09-12T08:39:26;27.50;99.90
13808;DHT22;40769;51.512;5.494;2023-09-12T08:41:53;27.50;99.90
13808;DHT22;40769;51.512;5.494;2023-09-12T08:44:20;27.40;99.90
13808;DHT22;40769;51.512;5.494;2023-09-12T08:46:46;27.30;99.90
13808;DHT22;40769;51.512;5.494;2023-09-12T08:49:12;27.30;99.90
13808;DHT22;40769;51.512;5.494;2023-09-12T08:51:39;27.30;99.90
13808;DHT22;40769;51.512;5.494;2023-09-12T08:54:05;27.20;99.90
13808;DHT22;40769;51.512;5.494;2023-09-12T08:56:34;27.20;99.90
13808;DHT22;40769;51.512;5.494;2023-09-12T08:59:01;27.10;99.90
13808;DHT22;40769;51.512;5.494;2023-09-12T09:01:30;27.00;99.90
13808;DHT22;40769;51.512;5.494;2023-09-12T09:03:57;26.90;99.90
13808;DHT22;40769;51.512;5.494;2023-09-12T09:06:23;26.90;99.90
13808;DHT22;40769;51.512;5.494;2023-09-12T09:08:50;26.90;99.90
13808;DHT22;40769;51.512;5.494;2023-09-12T09:11:16;26.90;99.90
13808;DHT22;40769;51.512;5.494;2023-09-12T09:13:42;27.00;99.90
13808;DHT22;40769;51.512;5.494;2023-09-12T09:16:16;26.80;99.90
13808;DHT22;40769;51.512;5.494;2023-09-12T09:21:18;27.50;99.90
13808;DHT22;40769;51.512;5.494;2023-09-12T09:23:46;27.70;99.90
13808;DHT22;40769;51.512;5.494;2023-09-12T09:26:12;28.00;99.90
13808;DHT22;40769;51.512;5.494;2023-09-12T09:28:39;28.20;99.90
13808;DHT22;40769;51.512;5.494;2023-09-12T09:31:10;28.40;99.90
13808;DHT22;40769;51.512;5.494;2023-09-12T09:33:37;28.70;99.90
13808;DHT22;40769;51.512;5.494;2023-09-12T09:36:05;28.90;99.90
13808;DHT22;40769;51.512;5.494;2023-09-12T09:38:31;29.10;99.90
13808;DHT22;40769;51.512;5.494;2023-09-12T09:40:57;29.20;99.90
13808;DHT22;40769;51.512;5.494;2023-09-12T09:43:23;29.30;99.90
13808;DHT22;40769;51.512;5.494;2023-09-12T09:45:53;29.40;99.90
13808;DHT22;40769;51.512;5.494;2023-09-12T09:48:23;29.50;99.90
13808;DHT22;40769;51.512;5.494;2023-09-12T09:50:50;29.70;99.90
13808;DHT22;40769;51.512;5.494;2023-09-12T09:53:17;29.90;99.90
13808;DHT22;40769;51.512;5.494;2023-09-12T09:55:42;30.10;99.90
13808;DHT22;40769;51.512;5.494;2023-09-12T09:58:08;30.40;99.90
13808;DHT22;40769;51.512;5.494;2023-09-12T10:00:36;30.50;99.90
13808;DHT22;40769;51.512;5.494;2023-09-12T10:03:05;30.80;99.90
13808;DHT22;40769;51.512;5.494;2023-09-12T10:05:33;31.00;99.90
13808;DHT22;40769;51.512;5.494;2023-09-12T10:08:02;31.10;99.90
13808;DHT22;40769;51.512;5.494;2023-09-12T10:10:29;31.20;99.90
13808;DHT22;40769;51.512;5.494;2023-09-12T10:12:57;31.30;99.90
13808;DHT22;40769;51.512;5.494;2023-09-12T10:15:28;31.40;99.90
13808;DHT22;40769;51.512;5.494;2023-09-12T10:17:59;31.40;99.90
13808;DHT22;40769;51.512;5.494;2023-09-12T10:20:50;31.40;99.90
13808;DHT22;40769;51.512;5.494;2023-09-12T10:23:25;31.50;99.90
13808;DHT22;40769;51.512;5.494;2023-09-12T10:25:54;31.60;99.90
13808;DHT22;40769;51.512;5.494;2023-09-12T10:28:21;31.70;99.90
13808;DHT22;40769;51.512;5.494;2023-09-12T10:30:47;31.80;99.90
13808;DHT22;40769;51.512;5.494;2023-09-12T10:33:15;31.90;99.90
13808;DHT22;40769;51.512;5.494;2023-09-12T10:35:44;32.00;99.90
13808;DHT22;40769;51.512;5.494;2023-09-12T10:38:12;32.00;99.90
13808;DHT22;40769;51.512;5.494;2023-09-12T10:40:40;32.20;99.90
13808;DHT22;40769;51.512;5.494;2023-09-12T10:43:06;32.20;99.90
13808;DHT22;40769;51.512;5.494;2023-09-12T10:45:35;32.30;99.90
13808;DHT22;40769;51.512;5.494;2023-09-12T10:48:03;32.40;99.90
13808;DHT22;40769;51.512;5.494;2023-09-12T10:50:29;32.50;99.90
13808;DHT22;40769;51.512;5.494;2023-09-12T10:52:57;32.60;99.90
13808;DHT22;40769;51.512;5.494;2023-09-12T10:55:33;32.70;99.90
13808;DHT22;40769;51.512;5.494;2023-09-12T10:58:07;32.70;99.90
13808;DHT22;40769;51.512;5.494;2023-09-12T11:00:34;32.80;99.90
13808;DHT22;40769;51.512;5.494;2023-09-12T11:05:55;33.00;99.90
13808;DHT22;40769;51.512;5.494;2023-09-12T11:08:22;33.10;99.90
13808;DHT22;40769;51.512;5.494;2023-09-12T11:11:16;33.10;99.90
13808;DHT22;40769;51.512;5.494;2023-09-12T11:13:43;33.20;99.90
13808;DHT22;40769;51.512;5.494;2023-09-12T11:16:13;33.10;99.90
13808;DHT22;40769;51.512;5.494;2023-09-12T11:19:18;33.00;99.90
13808;DHT22;40769;51.512;5.494;2023-09-12T11:21:54;32.90;99.90
13808;DHT22;40769;51.512;5.494;2023-09-12T11:24:21;32.70;99.90
13808;DHT22;40769;51.512;5.494;2023-09-12T11:27:00;32.60;99.90
13808;DHT22;40769;51.512;5.494;2023-09-12T11:29:36;32.50;99.90
13808;DHT22;40769;51.512;5.494;2023-09-12T11:32:02;32.40;99.90
13808;DHT22;40769;51.512;5.494;2023-09-12T11:34:35;32.30;99.90
13808;DHT22;40769;51.512;5.494;2023-09-12T11:37:02;32.30;99.90
13808;DHT22;40769;51.512;5.494;2023-09-12T11:39:31;32.20;99.90
13808;DHT22;40769;51.512;5.494;2023-09-12T11:41:58;32.10;99.90
13808;DHT22;40769;51.512;5.494;2023-09-12T11:44:25;32.00;99.90
13808;DHT22;40769;51.512;5.494;2023-09-12T11:46:52;32.00;99.90
13808;DHT22;40769;51.512;5.494;2023-09-12T11:49:19;32.00;99.90
13808;DHT22;40769;51.512;5.494;2023-09-12T11:51:52;32.00;99.90
13808;DHT22;40769;51.512;5.494;2023-09-12T11:54:19;32.00;99.90
13808;DHT22;40769;51.512;5.494;2023-09-12T11:56:48;32.00;99.90
13808;DHT22;40769;51.512;5.494;2023-09-12T11:59:15;32.00;99.90
13808;DHT22;40769;51.512;5.494;2023-09-12T12:01:44;31.90;99.90
13808;DHT22;40769;51.512;5.494;2023-09-12T12:04:11;31.80;99.90
13808;DHT22;40769;51.512;5.494;2023-09-12T12:06:37;31.70;99.90
13808;DHT22;40769;51.512;5.494;2023-09-12T12:09:03;31.60;99.90
13808;DHT22;40769;51.512;5.494;2023-09-12T12:11:30;31.60;99.90
13808;DHT22;40769;51.512;5.494;2023-09-12T12:13:57;31.60;99.90
13808;DHT22;40769;51.512;5.494;2023-09-12T12:16:24;31.60;99.90
13808;DHT22;40769;51.512;5.494;2023-09-12T12:18:50;31.60;99.90
13808;DHT22;40769;51.512;5.494;2023-09-12T12:21:20;31.70;99.90
13808;DHT22;40769;51.512;5.494;2023-09-12T12:23:46;31.70;99.90
13808;DHT22;40769;51.512;5.494;2023-09-12T12:26:12;31.80;99.90
13808;DHT22;40769;51.512;5.494;2023-09-12T12:28:38;32.00;99.90
13808;DHT22;40769;51.512;5.494;2023-09-12T12:31:05;32.10;99.90
13808;DHT22;40769;51.512;5.494;2023-09-12T12:33:31;32.30;99.90
13808;DHT22;40769;51.512;5.494;2023-09-12T12:36:04;32.40;99.90
13808;DHT22;40769;51.512;5.494;2023-09-12T12:38:38;32.50;99.90
13808;DHT22;40769;51.512;5.494;2023-09-12T12:41:04;32.60;99.90
13808;DHT22;40769;51.512;5.494;2023-09-12T12:43:31;32.70;99.90
13808;DHT22;40769;51.512;5.494;2023-09-12T12:45:58;32.80;99.90
13808;DHT22;40769;51.512;5.494;2023-09-12T12:48:35;33.00;99.90
13808;DHT22;40769;51.512;5.494;2023-09-12T12:51:14;33.10;99.90
13808;DHT22;40769;51.512;5.494;2023-09-12T12:53:46;33.30;99.90
13808;DHT22;40769;51.512;5.494;2023-09-12T12:56:18;33.30;99.90
13808;DHT22;40769;51.512;5.494;2023-09-12T12:58:52;33.40;99.90
13808;DHT22;40769;51.512;5.494;2023-09-12T13:01:20;33.50;99.90
13808;DHT22;40769;51.512;5.494;2023-09-12T13:03:46;33.60;99.90
13808;DHT22;40769;51.512;5.494;2023-09-12T13:06:12;33.70;99.90
13808;DHT22;40769;51.512;5.494;2023-09-12T13:08:43;33.70;99.90
13808;DHT22;40769;51.512;5.494;2023-09-12T13:11:09;33.80;99.90
13808;DHT22;40769;51.512;5.494;2023-09-12T13:13:36;33.70;99.90
13808;DHT22;40769;51.512;5.494;2023-09-12T13:16:08;33.60;99.90
13808;DHT22;40769;51.512;5.494;2023-09-12T13:18:38;33.70;99.90
13808;DHT22;40769;51.512;5.494;2023-09-12T13:21:04;33.60;99.90
13808;DHT22;40769;51.512;5.494;2023-09-12T13:23:33;33.70;99.90
13808;DHT22;40769;51.512;5.494;2023-09-12T13:25:59;33.70;99.90
13808;DHT22;40769;51.512;5.494;2023-09-12T13:28:25;33.80;99.90
13808;DHT22;40769;51.512;5.494;2023-09-12T13:30:54;33.70;99.90
13808;DHT22;40769;51.512;5.494;2023-09-12T13:33:20;33.70;99.90
13808;DHT22;40769;51.512;5.494;2023-09-12T13:35:49;33.50;99.90
13808;DHT22;40769;51.512;5.494;2023-09-12T13:38:16;33.30;99.90
13808;DHT22;40769;51.512;5.494;2023-09-12T13:40:45;33.10;99.90
13808;DHT22;40769;51.512;5.494;2023-09-12T13:43:11;33.00;99.90
13808;DHT22;40769;51.512;5.494;2023-09-12T13:45:37;33.00;99.90
13808;DHT22;40769;51.512;5.494;2023-09-12T13:48:04;33.00;99.90
13808;DHT22;40769;51.512;5.494;2023-09-12T13:50:31;33.00;99.90
13808;DHT22;40769;51.512;5.494;2023-09-12T13:53:01;33.10;99.90
13808;DHT22;40769;51.512;5.494;2023-09-12T13:55:33;33.10;99.90
13808;DHT22;40769;51.512;5.494;2023-09-12T13:58:01;33.00;99.90
13808;DHT22;40769;51.512;5.494;2023-09-12T14:00:26;33.00;99.90
13808;DHT22;40769;51.512;5.494;2023-09-12T14:02:52;33.00;99.90
13808;DHT22;40769;51.512;5.494;2023-09-12T14:05:18;33.10;99.90
13808;DHT22;40769;51.512;5.494;2023-09-12T14:07:44;33.10;99.90
13808;DHT22;40769;51.512;5.494;2023-09-12T14:10:10;33.20;99.90
13808;DHT22;40769;51.512;5.494;2023-09-12T14:12:36;33.40;99.90
13808;DHT22;40769;51.512;5.494;2023-09-12T14:15:04;33.50;99.90
13808;DHT22;40769;51.512;5.494;2023-09-12T14:17:32;33.60;99.90
13808;DHT22;40769;51.512;5.494;2023-09-12T14:19:58;33.70;99.90
13808;DHT22;40769;51.512;5.494;2023-09-12T14:22:23;33.90;99.90
13808;DHT22;40769;51.512;5.494;2023-09-12T14:24:49;34.20;99.90
13808;DHT22;40769;51.512;5.494;2023-09-12T14:27:15;34.40;99.90
13808;DHT22;40769;51.512;5.494;2023-09-12T14:29:41;34.60;99.90
13808;DHT22;40769;51.512;5.494;2023-09-12T14:32:11;34.70;99.90
13808;DHT22;40769;51.512;5.494;2023-09-12T14:34:37;34.90;99.90
13808;DHT22;40769;51.512;5.494;2023-09-12T14:37:04;35.00;99.90
13808;DHT22;40769;51.512;5.494;2023-09-12T14:39:29;35.90;99.90
13808;DHT22;40769;51.512;5.494;2023-09-12T14:41:55;35.10;99.90
13808;DHT22;40769;51.512;5.494;2023-09-12T14:44:22;35.10;99.90
13808;DHT22;40769;51.512;5.494;2023-09-12T14:46:48;34.90;99.90
13808;DHT22;40769;51.512;5.494;2023-09-12T14:49:15;34.80;99.90
13808;DHT22;40769;51.512;5.494;2023-09-12T14:51:41;34.70;99.90
13808;DHT22;40769;51.512;5.494;2023-09-12T14:54:07;34.50;99.90
13808;DHT22;40769;51.512;5.494;2023-09-12T14:56:34;34.40;99.90
13808;DHT22;40769;51.512;5.494;2023-09-12T14:59:04;34.40;99.90
13808;DHT22;40769;51.512;5.494;2023-09-12T15:01:30;34.30;99.90
13808;DHT22;40769;51.512;5.494;2023-09-12T15:03:56;34.30;99.90
13808;DHT22;40769;51.512;5.494;2023-09-12T15:06:27;34.30;99.90
13808;DHT22;40769;51.512;5.494;2023-09-12T15:08:53;34.30;99.90
13808;DHT22;40769;51.512;5.494;2023-09-12T15:11:19;34.20;99.90
13808;DHT22;40769;51.512;5.494;2023-09-12T15:13:45;34.10;99.90
13808;DHT22;40769;51.512;5.494;2023-09-12T15:16:11;34.00;99.90
13808;DHT22;40769;51.512;5.494;2023-09-12T15:18:37;33.90;99.90
13808;DHT22;40769;51.512;5.494;2023-09-12T15:21:06;33.90;99.90
13808;DHT22;40769;51.512;5.494;2023-09-12T15:23:32;33.90;99.90
13808;DHT22;40769;51.512;5.494;2023-09-12T15:25:57;34.00;99.90
13808;DHT22;40769;51.512;5.494;2023-09-12T15:28:26;34.00;99.90
13808;DHT22;40769;51.512;5.494;2023-09-12T15:30:52;34.00;99.90
13808;DHT22;40769;51.512;5.494;2023-09-12T15:33:19;34.00;99.90
13808;DHT22;40769;51.512;5.494;2023-09-12T15:35:53;33.90;99.90
13808;DHT22;40769;51.512;5.494;2023-09-12T15:38:18;33.80;99.90
13808;DHT22;40769;51.512;5.494;2023-09-12T15:40:44;33.60;99.90